createdAt,value
2023-01-07T00:00:31.045Z,1016.27
2023-01-07T00:01:31.386Z,1016.22
2023-01-07T00:02:31.020Z,1016.24
2023-01-07T00:03:31.061Z,1016.22
2023-01-07T00:04:30.986Z,1016.23
2023-01-07T00:05:30.985Z,1016.22
2023-01-07T00:06:30.949Z,1016.21
2023-01-07T00:07:30.952Z,1016.20
2023-01-07T00:08:30.968Z,1016.20
2023-01-07T00:09:30.977Z,1016.14
2023-01-07T00:10:30.893Z,1016.25
2023-01-07T00:11:30.878Z,1016.19
2023-01-07T00:12:30.871Z,1016.21
2023-01-07T00:13:30.858Z,1016.18
2023-01-07T00:14:30.865Z,1016.18
2023-01-07T00:15:30.854Z,1016.22
2023-01-07T00:16:30.821Z,1016.18
2023-01-07T00:17:30.806Z,1016.21
2023-01-07T00:18:30.853Z,1016.19
2023-01-07T00:19:30.768Z,1016.19
2023-01-07T00:20:30.763Z,1016.22
2023-01-07T00:21:30.753Z,1016.19
2023-01-07T00:22:30.780Z,1016.16
2023-01-07T00:23:30.765Z,1016.14
2023-01-07T00:24:30.721Z,1016.14
2023-01-07T00:25:30.697Z,1016.10
2023-01-07T00:26:30.696Z,1016.11
2023-01-07T00:27:30.699Z,1016.11
2023-01-07T00:28:30.671Z,1016.09
2023-01-07T00:29:30.653Z,1016.08
2023-01-07T00:30:30.633Z,1016.03
2023-01-07T00:31:30.753Z,1016.01
2023-01-07T00:32:30.615Z,1016.04
2023-01-07T00:33:30.601Z,1016.03
2023-01-07T00:34:30.571Z,1016.03
2023-01-07T00:35:30.546Z,1016.02
2023-01-07T00:36:30.564Z,1016.03
2023-01-07T00:37:30.560Z,1016.04
2023-01-07T00:38:30.539Z,1016.07
2023-01-07T00:39:30.520Z,1016.06
2023-01-07T00:40:30.511Z,1016.04
2023-01-07T00:41:30.498Z,1016.03
2023-01-07T00:42:30.482Z,1016.05
2023-01-07T00:43:30.438Z,1015.99
2023-01-07T00:44:30.414Z,1016.00
2023-01-07T00:45:30.424Z,1015.96
2023-01-07T00:46:30.496Z,1016.00
2023-01-07T00:47:30.404Z,1015.95
2023-01-07T00:48:30.396Z,1015.93
2023-01-07T00:49:30.380Z,1015.93
2023-01-07T00:50:30.522Z,1015.93
2023-01-07T00:51:30.360Z,1015.93
2023-01-07T00:52:30.320Z,1015.92
2023-01-07T00:53:30.373Z,1015.88
2023-01-07T00:54:30.305Z,1015.89
2023-01-07T00:55:30.273Z,1015.91
2023-01-07T00:56:30.255Z,1015.86
2023-01-07T00:57:30.271Z,1015.84
2023-01-07T00:58:30.243Z,1015.81
2023-01-07T00:59:30.247Z,1015.79
2023-01-07T01:00:30.226Z,1015.77
2023-01-07T01:01:30.285Z,1015.80
2023-01-07T01:02:30.231Z,1015.76
2023-01-07T01:03:30.163Z,1015.78
2023-01-07T01:04:30.130Z,1015.75
2023-01-07T01:05:30.140Z,1015.76
2023-01-07T01:06:30.144Z,1015.80
2023-01-07T01:07:30.103Z,1015.75
2023-01-07T01:08:30.093Z,1015.72
2023-01-07T01:09:30.073Z,1015.72
2023-01-07T01:10:30.090Z,1015.72
2023-01-07T01:11:30.110Z,1015.67
2023-01-07T01:12:30.047Z,1015.68
2023-01-07T01:13:30.032Z,1015.69
2023-01-07T01:14:30.033Z,1015.67
2023-01-07T01:15:30.027Z,1015.68
2023-01-07T01:16:30.067Z,1015.63
2023-01-07T01:17:29.967Z,1015.68
2023-01-07T01:18:30.059Z,1015.67
2023-01-07T01:19:29.969Z,1015.66
2023-01-07T01:20:29.911Z,1015.68
2023-01-07T01:21:29.902Z,1015.65
2023-01-07T01:22:29.937Z,1015.68
2023-01-07T01:23:29.877Z,1015.70
2023-01-07T01:24:29.863Z,1015.68
2023-01-07T01:25:30.845Z,1015.68
2023-01-07T01:26:29.848Z,1015.63
2023-01-07T01:27:29.836Z,1015.65
2023-01-07T01:28:29.804Z,1015.61
2023-01-07T01:29:50.789Z,1015.66
2023-01-07T01:30:29.783Z,1015.69
2023-01-07T01:31:29.788Z,1015.69
2023-01-07T01:32:29.778Z,1015.67
2023-01-07T01:33:29.740Z,1015.67
2023-01-07T01:34:29.729Z,1015.66
2023-01-07T01:35:29.726Z,1015.67
2023-01-07T01:36:29.697Z,1015.69
2023-01-07T01:37:29.679Z,1015.66
2023-01-07T01:38:29.673Z,1015.68
2023-01-07T01:39:29.669Z,1015.64
2023-01-07T01:40:29.656Z,1015.65
2023-01-07T01:41:29.607Z,1015.65
2023-01-07T01:42:29.609Z,1015.66
2023-01-07T01:43:29.629Z,1015.66
2023-01-07T01:44:29.594Z,1015.63
2023-01-07T01:45:29.561Z,1015.69
2023-01-07T01:46:29.606Z,1015.71
2023-01-07T01:47:29.541Z,1015.67
2023-01-07T01:48:29.544Z,1015.72
2023-01-07T01:49:29.536Z,1015.72
2023-01-07T01:50:29.513Z,1015.70
2023-01-07T01:51:29.503Z,1015.69
2023-01-07T01:52:29.487Z,1015.69
2023-01-07T01:53:29.455Z,1015.69
2023-01-07T01:54:29.439Z,1015.65
2023-01-07T01:55:29.414Z,1015.64
2023-01-07T01:56:29.457Z,1015.66
2023-01-07T01:57:29.422Z,1015.64
2023-01-07T01:58:29.388Z,1015.59
2023-01-07T01:59:29.375Z,1015.60
2023-01-07T02:00:29.394Z,1015.60
2023-01-07T02:01:29.440Z,1015.59
2023-01-07T02:02:29.356Z,1015.60
2023-01-07T02:03:36.867Z,1015.58
2023-01-07T02:04:29.293Z,1015.57
2023-01-07T02:05:29.355Z,1015.55
2023-01-07T02:06:29.284Z,1015.56
2023-01-07T02:07:29.266Z,1015.57
2023-01-07T02:08:29.265Z,1015.54
2023-01-07T02:09:29.261Z,1015.53
2023-01-07T02:10:29.225Z,1015.52
2023-01-07T02:11:29.223Z,1015.48
2023-01-07T02:12:29.226Z,1015.49
2023-01-07T02:13:29.180Z,1015.43
2023-01-07T02:14:29.169Z,1015.47
2023-01-07T02:15:29.142Z,1015.45
2023-01-07T02:16:29.227Z,1015.46
2023-01-07T02:17:29.182Z,1015.49
2023-01-07T02:18:29.147Z,1015.46
2023-01-07T02:19:29.095Z,1015.45
2023-01-07T02:20:29.093Z,1015.45
2023-01-07T02:21:29.079Z,1015.47
2023-01-07T02:22:29.073Z,1015.43
2023-01-07T02:23:29.043Z,1015.42
2023-01-07T02:24:29.062Z,1015.41
2023-01-07T02:25:29.010Z,1015.42
2023-01-07T02:26:29.027Z,1015.42
2023-01-07T02:27:28.981Z,1015.40
2023-01-07T02:28:28.969Z,1015.39
2023-01-07T02:29:28.973Z,1015.38
2023-01-07T02:30:28.947Z,1015.38
2023-01-07T02:31:29.045Z,1015.39
2023-01-07T02:32:28.909Z,1015.40
2023-01-07T02:33:28.936Z,1015.41
2023-01-07T02:34:28.888Z,1015.41
2023-01-07T02:35:32.641Z,1015.37
2023-01-07T02:36:28.861Z,1015.38
2023-01-07T02:37:28.832Z,1015.37
2023-01-07T02:38:28.830Z,1015.38
2023-01-07T02:39:28.843Z,1015.42
2023-01-07T02:40:28.804Z,1015.40
2023-01-07T02:41:28.814Z,1015.39
2023-01-07T02:42:28.784Z,1015.40
2023-01-07T02:43:28.744Z,1015.38
2023-01-07T02:44:28.755Z,1015.40
2023-01-07T02:45:28.815Z,1015.37
2023-01-07T02:46:28.731Z,1015.36
2023-01-07T02:47:28.697Z,1015.41
2023-01-07T02:48:28.717Z,1015.41
2023-01-07T02:49:28.697Z,1015.37
2023-01-07T02:50:28.676Z,1015.38
2023-01-07T02:51:28.670Z,1015.39
2023-01-07T02:52:28.642Z,1015.38
2023-01-07T02:53:28.674Z,1015.36
2023-01-07T02:54:28.621Z,1015.30
2023-01-07T02:55:28.581Z,1015.32
2023-01-07T02:56:28.598Z,1015.32
2023-01-07T02:57:28.587Z,1015.28
2023-01-07T02:58:28.554Z,1015.30
2023-01-07T02:59:28.581Z,1015.28
2023-01-07T03:00:28.549Z,1015.24
2023-01-07T03:01:28.697Z,1015.22
2023-01-07T03:02:28.473Z,1015.23
2023-01-07T03:03:28.478Z,1015.24
2023-01-07T03:04:28.507Z,1015.21
2023-01-07T03:05:28.458Z,1015.20
2023-01-07T03:06:28.452Z,1015.19
2023-01-07T03:07:28.423Z,1015.19
2023-01-07T03:08:28.410Z,1015.18
2023-01-07T03:09:28.403Z,1015.18
2023-01-07T03:10:28.407Z,1015.11
2023-01-07T03:11:28.411Z,1015.16
2023-01-07T03:12:28.372Z,1015.15
2023-01-07T03:13:28.432Z,1015.13
2023-01-07T03:14:28.331Z,1015.12
2023-01-07T03:15:29.197Z,1015.08
2023-01-07T03:16:28.334Z,1015.10
2023-01-07T03:17:28.312Z,1015.06
2023-01-07T03:18:28.271Z,1015.06
2023-01-07T03:19:28.254Z,1015.05
2023-01-07T03:20:28.262Z,1015.06
2023-01-07T03:21:28.237Z,1015.03
2023-01-07T03:22:28.233Z,1015.02
2023-01-07T03:23:28.211Z,1015.04
2023-01-07T03:24:28.184Z,1015.02
2023-01-07T03:25:28.173Z,1015.01
2023-01-07T03:26:28.183Z,1015.03
2023-01-07T03:27:28.149Z,1015.02
2023-01-07T03:28:28.124Z,1015.02
2023-01-07T03:29:28.122Z,1015.02
2023-01-07T03:30:28.101Z,1015.02
2023-01-07T03:31:28.199Z,1015.06
2023-01-07T03:32:28.075Z,1015.01
2023-01-07T03:33:28.065Z,1015.03
2023-01-07T03:34:28.050Z,1015.01
2023-01-07T03:35:28.036Z,1014.95
2023-01-07T03:36:28.027Z,1015.05
2023-01-07T03:37:28.033Z,1015.02
2023-01-07T03:38:28.019Z,1015.03
2023-01-07T03:39:27.979Z,1015.00
2023-01-07T03:40:27.958Z,1014.98
2023-01-07T03:41:27.969Z,1014.95
2023-01-07T03:42:27.947Z,1014.92
2023-01-07T03:43:27.939Z,1014.92
2023-01-07T03:44:27.899Z,1014.92
2023-01-07T03:45:27.955Z,1014.92
2023-01-07T03:46:27.882Z,1014.92
2023-01-07T03:47:27.879Z,1014.81
2023-01-07T03:48:27.863Z,1014.83
2023-01-07T03:49:27.857Z,1014.77
2023-01-07T03:50:27.830Z,1014.76
2023-01-07T03:51:27.839Z,1014.78
2023-01-07T03:52:27.824Z,1014.79
2023-01-07T03:53:27.815Z,1014.76
2023-01-07T03:54:27.782Z,1014.76
2023-01-07T03:55:27.770Z,1014.78
2023-01-07T03:56:27.732Z,1014.79
2023-01-07T03:57:27.742Z,1014.74
2023-01-07T03:58:27.769Z,1014.80
2023-01-07T03:59:27.720Z,1014.73
2023-01-07T04:00:27.695Z,1014.76
2023-01-07T04:01:27.849Z,1014.76
2023-01-07T04:02:27.652Z,1014.79
2023-01-07T04:03:27.662Z,1014.77
2023-01-07T04:04:27.677Z,1014.74
2023-01-07T04:05:27.648Z,1014.78
2023-01-07T04:06:27.592Z,1014.74
2023-01-07T04:07:27.607Z,1014.74
2023-01-07T04:08:27.597Z,1014.74
2023-01-07T04:09:27.560Z,1014.74
2023-01-07T04:10:27.545Z,1014.70
2023-01-07T04:11:27.545Z,1014.70
2023-01-07T04:12:27.521Z,1014.64
2023-01-07T04:13:27.538Z,1014.64
2023-01-07T04:14:27.513Z,1014.64
2023-01-07T04:15:27.479Z,1014.64
2023-01-07T04:16:27.535Z,1014.63
2023-01-07T04:17:27.453Z,1014.60
2023-01-07T04:18:27.455Z,1014.60
2023-01-07T04:19:27.445Z,1014.60
2023-01-07T04:20:27.426Z,1014.62
2023-01-07T04:21:27.411Z,1014.59
2023-01-07T04:22:27.393Z,1014.59
2023-01-07T04:23:27.386Z,1014.58
2023-01-07T04:24:27.347Z,1014.58
2023-01-07T04:25:27.338Z,1014.56
2023-01-07T04:26:27.368Z,1014.55
2023-01-07T04:27:27.325Z,1014.56
2023-01-07T04:28:27.298Z,1014.52
2023-01-07T04:29:27.295Z,1014.53
2023-01-07T04:30:27.319Z,1014.53
2023-01-07T04:31:27.295Z,1014.49
2023-01-07T04:32:27.313Z,1014.51
2023-01-07T04:33:27.215Z,1014.48
2023-01-07T04:34:27.229Z,1014.51
2023-01-07T04:35:27.206Z,1014.47
2023-01-07T04:36:27.208Z,1014.47
2023-01-07T04:37:27.182Z,1014.50
2023-01-07T04:38:27.171Z,1014.42
2023-01-07T04:39:27.148Z,1014.39
2023-01-07T04:40:27.130Z,1014.39
2023-01-07T04:41:27.119Z,1014.39
2023-01-07T04:42:27.135Z,1014.35
2023-01-07T04:43:27.091Z,1014.34
2023-01-07T04:44:27.075Z,1014.35
2023-01-07T04:45:27.089Z,1014.35
2023-01-07T04:46:27.103Z,1014.33
2023-01-07T04:47:27.033Z,1014.31
2023-01-07T04:48:27.071Z,1014.30
2023-01-07T04:49:27.035Z,1014.28
2023-01-07T04:50:26.991Z,1014.28
2023-01-07T04:51:26.976Z,1014.24
2023-01-07T04:52:26.988Z,1014.22
2023-01-07T04:53:26.951Z,1014.21
2023-01-07T04:54:26.963Z,1014.20
2023-01-07T04:55:26.933Z,1014.17
2023-01-07T04:56:26.945Z,1014.18
2023-01-07T04:57:26.894Z,1014.16
2023-01-07T04:58:26.894Z,1014.11
2023-01-07T04:59:26.864Z,1014.12
2023-01-07T05:00:26.872Z,1014.14
2023-01-07T05:01:27.000Z,1014.11
2023-01-07T05:02:26.859Z,1014.11
2023-01-07T05:03:26.820Z,1014.09
2023-01-07T05:04:26.823Z,1014.08
2023-01-07T05:05:26.800Z,1014.12
2023-01-07T05:06:26.774Z,1014.12
2023-01-07T05:07:26.793Z,1014.12
2023-01-07T05:08:26.735Z,1014.12
2023-01-07T05:09:26.774Z,1014.11
2023-01-07T05:10:26.721Z,1014.11
2023-01-07T05:11:26.719Z,1014.06
2023-01-07T05:12:26.688Z,1014.06
2023-01-07T05:13:26.688Z,1014.08
2023-01-07T05:14:26.661Z,1014.02
2023-01-07T05:15:26.649Z,1014.01
2023-01-07T05:16:26.700Z,1013.99
2023-01-07T05:17:26.623Z,1013.98
2023-01-07T05:18:26.619Z,1013.94
2023-01-07T05:19:26.599Z,1013.91
2023-01-07T05:20:26.579Z,1013.90
2023-01-07T05:21:26.549Z,1013.88
2023-01-07T05:22:26.541Z,1013.87
2023-01-07T05:23:26.555Z,1013.87
2023-01-07T05:24:26.502Z,1013.82
2023-01-07T05:25:26.515Z,1013.85
2023-01-07T05:26:26.510Z,1013.83
2023-01-07T05:27:26.468Z,1013.81
2023-01-07T05:28:26.517Z,1013.84
2023-01-07T05:29:26.478Z,1013.81
2023-01-07T05:30:26.432Z,1013.76
2023-01-07T05:31:26.447Z,1013.75
2023-01-07T05:32:26.393Z,1013.78
2023-01-07T05:33:26.394Z,1013.78
2023-01-07T05:34:26.394Z,1013.84
2023-01-07T05:35:26.370Z,1013.79
2023-01-07T05:36:26.402Z,1013.83
2023-01-07T05:37:26.337Z,1013.87
2023-01-07T05:38:26.318Z,1013.86
2023-01-07T05:39:26.352Z,1013.87
2023-01-07T05:40:26.316Z,1013.83
2023-01-07T05:41:26.301Z,1013.82
2023-01-07T05:42:26.279Z,1013.83
2023-01-07T05:43:26.246Z,1013.83
2023-01-07T05:44:26.254Z,1013.82
2023-01-07T05:45:26.250Z,1013.79
2023-01-07T05:46:26.298Z,1013.76
2023-01-07T05:47:26.204Z,1013.80
2023-01-07T05:48:26.271Z,1013.79
2023-01-07T05:49:26.190Z,1013.78
2023-01-07T05:50:26.157Z,1013.77
2023-01-07T05:51:26.161Z,1013.79
2023-01-07T05:52:26.132Z,1013.77
2023-01-07T05:53:26.159Z,1013.75
2023-01-07T05:54:26.120Z,1013.74
2023-01-07T05:55:26.074Z,1013.71
2023-01-07T05:56:26.111Z,1013.70
2023-01-07T05:57:26.061Z,1013.67
2023-01-07T05:58:26.074Z,1013.69
2023-01-07T05:59:26.045Z,1013.69
2023-01-07T06:00:26.024Z,1013.70
2023-01-07T06:01:26.070Z,1013.74
2023-01-07T06:02:25.987Z,1013.73
2023-01-07T06:03:26.088Z,1013.71
2023-01-07T06:04:26.049Z,1013.69
2023-01-07T06:05:25.952Z,1013.71
2023-01-07T06:06:25.943Z,1013.74
2023-01-07T06:07:25.961Z,1013.71
2023-01-07T06:08:25.902Z,1013.71
2023-01-07T06:09:25.929Z,1013.64
2023-01-07T06:10:25.883Z,1013.67
2023-01-07T06:11:25.862Z,1013.60
2023-01-07T06:12:25.886Z,1013.64
2023-01-07T06:13:25.851Z,1013.67
2023-01-07T06:14:25.849Z,1013.60
2023-01-07T06:15:25.864Z,1013.60
2023-01-07T06:16:25.819Z,1013.58
2023-01-07T06:17:25.816Z,1013.60
2023-01-07T06:18:25.816Z,1013.59
2023-01-07T06:19:25.751Z,1013.58
2023-01-07T06:20:25.751Z,1013.56
2023-01-07T06:21:25.755Z,1013.55
2023-01-07T06:22:25.721Z,1013.55
2023-01-07T06:23:25.717Z,1013.57
2023-01-07T06:24:25.688Z,1013.57
2023-01-07T06:25:25.690Z,1013.52
2023-01-07T06:26:25.678Z,1013.50
2023-01-07T06:27:25.649Z,1013.48
2023-01-07T06:28:25.683Z,1013.50
2023-01-07T06:29:25.655Z,1013.47
2023-01-07T06:30:25.660Z,1013.48
2023-01-07T06:31:25.669Z,1013.48
2023-01-07T06:32:25.581Z,1013.45
2023-01-07T06:33:25.582Z,1013.44
2023-01-07T06:34:25.588Z,1013.44
2023-01-07T06:35:25.553Z,1013.45
2023-01-07T06:36:25.566Z,1013.44
2023-01-07T06:37:25.548Z,1013.43
2023-01-07T06:38:25.610Z,1013.47
2023-01-07T06:39:25.490Z,1013.44
2023-01-07T06:40:25.540Z,1013.45
2023-01-07T06:41:25.492Z,1013.44
2023-01-07T06:42:25.458Z,1013.43
2023-01-07T06:43:25.475Z,1013.43
2023-01-07T06:44:25.417Z,1013.44
2023-01-07T06:45:25.428Z,1013.47
2023-01-07T06:46:25.468Z,1013.43
2023-01-07T06:47:25.394Z,1013.43
2023-01-07T06:48:25.377Z,1013.45
2023-01-07T06:49:25.392Z,1013.44
2023-01-07T06:50:25.349Z,1013.43
2023-01-07T06:51:25.356Z,1013.43
2023-01-07T06:52:25.359Z,1013.37
2023-01-07T06:53:25.303Z,1013.39
2023-01-07T06:54:33.843Z,1013.38
2023-01-07T06:55:32.820Z,1013.37
2023-01-07T06:56:32.850Z,1013.39
2023-01-07T06:57:33.836Z,1013.36
2023-01-07T06:58:25.250Z,1013.35
2023-01-07T06:59:32.784Z,1013.32
2023-01-07T07:00:25.235Z,1013.31
2023-01-07T07:01:25.402Z,1013.34
2023-01-07T07:02:25.348Z,1013.39
2023-01-07T07:03:25.208Z,1013.35
2023-01-07T07:04:25.179Z,1013.28
2023-01-07T07:05:25.177Z,1013.27
2023-01-07T07:06:25.177Z,1013.26
2023-01-07T07:07:25.148Z,1013.26
2023-01-07T07:08:25.150Z,1013.24
2023-01-07T07:09:25.135Z,1013.23
2023-01-07T07:10:25.121Z,1013.23
2023-01-07T07:11:25.103Z,1013.20
2023-01-07T07:12:25.095Z,1013.25
2023-01-07T07:13:25.112Z,1013.21
2023-01-07T07:14:25.051Z,1013.23
2023-01-07T07:15:25.045Z,1013.23
2023-01-07T07:16:25.096Z,1013.21
2023-01-07T07:17:24.995Z,1013.22
2023-01-07T07:18:25.000Z,1013.22
2023-01-07T07:19:25.004Z,1013.15
2023-01-07T07:20:24.990Z,1013.20
2023-01-07T07:21:24.994Z,1013.17
2023-01-07T07:22:24.955Z,1013.18
2023-01-07T07:23:24.987Z,1013.14
2023-01-07T07:24:24.997Z,1013.12
2023-01-07T07:25:24.900Z,1013.08
2023-01-07T07:26:24.910Z,1013.11
2023-01-07T07:27:24.887Z,1013.10
2023-01-07T07:28:24.895Z,1013.15
2023-01-07T07:29:24.852Z,1013.17
2023-01-07T07:30:47.265Z,1013.12
2023-01-07T07:31:25.875Z,1013.11
2023-01-07T07:32:24.831Z,1013.14
2023-01-07T07:33:24.809Z,1013.10
2023-01-07T07:34:24.814Z,1013.11
2023-01-07T07:35:24.803Z,1013.12
2023-01-07T07:36:24.788Z,1013.09
2023-01-07T07:37:24.748Z,1013.08
2023-01-07T07:38:24.770Z,1013.09
2023-01-07T07:39:24.734Z,1013.07
2023-01-07T07:40:24.783Z,1013.04
2023-01-07T07:41:24.713Z,1013.06
2023-01-07T07:42:24.682Z,1013.01
2023-01-07T07:43:24.722Z,1013.01
2023-01-07T07:44:24.653Z,1013.01
2023-01-07T07:45:24.684Z,1013.01
2023-01-07T07:46:24.688Z,1012.99
2023-01-07T07:47:24.629Z,1012.95
2023-01-07T07:48:24.581Z,1012.91
2023-01-07T07:49:24.621Z,1012.89
2023-01-07T07:50:24.547Z,1012.89
2023-01-07T07:51:24.552Z,1012.85
2023-01-07T07:52:24.536Z,1012.86
2023-01-07T07:53:24.526Z,1012.90
2023-01-07T07:54:24.532Z,1012.90
2023-01-07T07:55:26.234Z,1012.87
2023-01-07T07:56:24.489Z,1012.85
2023-01-07T07:57:24.468Z,1012.80
2023-01-07T07:58:24.446Z,1012.83
2023-01-07T07:59:24.477Z,1012.81
2023-01-07T08:00:24.567Z,1012.79
2023-01-07T08:01:24.521Z,1012.81
2023-01-07T08:02:24.423Z,1012.76
2023-01-07T08:03:24.564Z,1012.74
2023-01-07T08:04:24.386Z,1012.75
2023-01-07T08:05:24.386Z,1012.70
2023-01-07T08:06:24.361Z,1012.72
2023-01-07T08:07:32.137Z,1012.71
2023-01-07T08:08:25.344Z,1012.66
2023-01-07T08:09:24.318Z,1012.66
2023-01-07T08:10:24.288Z,1012.67
2023-01-07T08:11:24.339Z,1012.67
2023-01-07T08:12:24.269Z,1012.66
2023-01-07T08:13:24.260Z,1012.70
2023-01-07T08:14:24.236Z,1012.65
2023-01-07T08:15:24.216Z,1012.66
2023-01-07T08:16:24.245Z,1012.65
2023-01-07T08:17:24.175Z,1012.57
2023-01-07T08:18:25.153Z,1012.55
2023-01-07T08:19:24.195Z,1012.53
2023-01-07T08:20:24.141Z,1012.55
2023-01-07T08:21:24.133Z,1012.51
2023-01-07T08:22:24.127Z,1012.54
2023-01-07T08:23:24.109Z,1012.49
2023-01-07T08:24:24.149Z,1012.50
2023-01-07T08:25:24.059Z,1012.52
2023-01-07T08:26:24.066Z,1012.48
2023-01-07T08:27:24.069Z,1012.51
2023-01-07T08:28:24.046Z,1012.45
2023-01-07T08:29:24.017Z,1012.48
2023-01-07T08:30:24.028Z,1012.52
2023-01-07T08:31:24.105Z,1012.52
2023-01-07T08:32:23.995Z,1012.50
2023-01-07T08:33:23.955Z,1012.54
2023-01-07T08:34:25.015Z,1012.51
2023-01-07T08:35:23.940Z,1012.55
2023-01-07T08:36:23.941Z,1012.54
2023-01-07T08:37:23.922Z,1012.47
2023-01-07T08:38:23.894Z,1012.47
2023-01-07T08:39:23.970Z,1012.48
2023-01-07T08:40:23.894Z,1012.52
2023-01-07T08:41:23.875Z,1012.52
2023-01-07T08:42:23.833Z,1012.50
2023-01-07T08:43:23.865Z,1012.50
2023-01-07T08:44:23.804Z,1012.49
2023-01-07T08:45:23.801Z,1012.50
2023-01-07T08:46:23.860Z,1012.45
2023-01-07T08:47:23.756Z,1012.46
2023-01-07T08:48:23.785Z,1012.41
2023-01-07T08:49:23.738Z,1012.47
2023-01-07T08:50:23.712Z,1012.41
2023-01-07T08:51:23.729Z,1012.39
2023-01-07T08:52:23.703Z,1012.36
2023-01-07T08:53:23.670Z,1012.37
2023-01-07T08:54:23.689Z,1012.38
2023-01-07T08:55:23.641Z,1012.37
2023-01-07T08:56:23.684Z,1012.36
2023-01-07T08:57:23.631Z,1012.37
2023-01-07T08:58:23.624Z,1012.39
2023-01-07T08:59:23.620Z,1012.38
2023-01-07T09:00:23.616Z,1012.40
2023-01-07T09:01:23.703Z,1012.34
2023-01-07T09:02:23.627Z,1012.38
2023-01-07T09:03:23.538Z,1012.35
2023-01-07T09:04:23.545Z,1012.33
2023-01-07T09:05:23.513Z,1012.39
2023-01-07T09:06:23.791Z,1012.37
2023-01-07T09:07:23.481Z,1012.41
2023-01-07T09:08:23.580Z,1012.43
2023-01-07T09:09:23.451Z,1012.44
2023-01-07T09:10:23.471Z,1012.43
2023-01-07T09:11:23.451Z,1012.41
2023-01-07T09:12:23.414Z,1012.41
2023-01-07T09:13:23.391Z,1012.39
2023-01-07T09:14:23.453Z,1012.38
2023-01-07T09:15:23.371Z,1012.41
2023-01-07T09:16:23.421Z,1012.39
2023-01-07T09:17:24.241Z,1012.36
2023-01-07T09:18:23.339Z,1012.36
2023-01-07T09:19:23.307Z,1012.34
2023-01-07T09:20:23.326Z,1012.32
2023-01-07T09:21:23.321Z,1012.29
2023-01-07T09:22:23.318Z,1012.30
2023-01-07T09:23:23.268Z,1012.28
2023-01-07T09:24:23.247Z,1012.29
2023-01-07T09:25:23.225Z,1012.25
2023-01-07T09:26:23.278Z,1012.22
2023-01-07T09:27:23.209Z,1012.22
2023-01-07T09:28:23.187Z,1012.23
2023-01-07T09:29:23.169Z,1012.20
2023-01-07T09:30:23.228Z,1012.19
2023-01-07T09:31:24.028Z,1012.20
2023-01-07T09:32:23.184Z,1012.25
2023-01-07T09:33:23.150Z,1012.23
2023-01-07T09:34:23.118Z,1012.20
2023-01-07T09:35:23.093Z,1012.18
2023-01-07T09:36:23.094Z,1012.16
2023-01-07T09:37:23.055Z,1012.15
2023-01-07T09:38:23.104Z,1012.15
2023-01-07T09:39:23.051Z,1012.09
2023-01-07T09:40:23.099Z,1012.10
2023-01-07T09:41:23.032Z,1012.12
2023-01-07T09:42:22.990Z,1012.10
2023-01-07T09:43:22.994Z,1012.07
2023-01-07T09:44:22.967Z,1012.07
2023-01-07T09:45:22.948Z,1012.04
2023-01-07T09:46:22.945Z,1012.03
2023-01-07T09:47:22.932Z,1012.02
2023-01-07T09:48:31.647Z,1012.00
2023-01-07T09:49:22.893Z,1011.95
2023-01-07T09:50:25.107Z,1011.95
2023-01-07T09:51:22.880Z,1012.00
2023-01-07T09:52:22.924Z,1011.98
2023-01-07T09:53:22.852Z,1011.96
2023-01-07T09:54:22.846Z,1011.99
2023-01-07T09:55:22.849Z,1011.96
2023-01-07T09:56:22.850Z,1011.99
2023-01-07T09:57:22.797Z,1011.98
2023-01-07T09:58:22.778Z,1011.95
2023-01-07T09:59:22.762Z,1011.94
2023-01-07T10:00:22.771Z,1011.98
2023-01-07T10:01:22.811Z,1011.94
2023-01-07T10:02:22.763Z,1011.98
2023-01-07T10:03:22.700Z,1011.95
2023-01-07T10:04:22.713Z,1011.94
2023-01-07T10:05:22.702Z,1011.98
2023-01-07T10:06:38.483Z,1011.98
2023-01-07T10:07:23.696Z,1011.96
2023-01-07T10:08:29.371Z,1011.97
2023-01-07T10:09:23.622Z,1011.97
2023-01-07T10:10:22.609Z,1011.95
2023-01-07T10:11:22.591Z,1011.95
2023-01-07T10:12:22.664Z,1011.95
2023-01-07T10:13:22.568Z,1011.92
2023-01-07T10:14:22.549Z,1011.88
2023-01-07T10:15:22.568Z,1011.90
2023-01-07T10:16:22.585Z,1011.87
2023-01-07T10:17:22.501Z,1011.80
2023-01-07T10:18:22.525Z,1011.77
2023-01-07T10:19:22.473Z,1011.72
2023-01-07T10:20:22.499Z,1011.78
2023-01-07T10:21:22.443Z,1011.78
2023-01-07T10:22:22.439Z,1011.73
2023-01-07T10:23:22.395Z,1011.74
2023-01-07T10:24:22.440Z,1011.75
2023-01-07T10:25:22.379Z,1011.72
2023-01-07T10:26:22.368Z,1011.68
2023-01-07T10:27:22.418Z,1011.69
2023-01-07T10:28:22.355Z,1011.63
2023-01-07T10:29:22.322Z,1011.62
2023-01-07T10:30:22.313Z,1011.57
2023-01-07T10:31:22.362Z,1011.58
2023-01-07T10:32:22.293Z,1011.53
2023-01-07T10:33:22.266Z,1011.51
2023-01-07T10:34:22.299Z,1011.52
2023-01-07T10:35:22.253Z,1011.49
2023-01-07T10:36:22.247Z,1011.41
2023-01-07T10:37:22.224Z,1011.43
2023-01-07T10:38:22.191Z,1011.40
2023-01-07T10:39:22.294Z,1011.40
2023-01-07T10:40:22.157Z,1011.40
2023-01-07T10:41:22.177Z,1011.31
2023-01-07T10:42:22.121Z,1011.28
2023-01-07T10:43:22.107Z,1011.26
2023-01-07T10:44:22.093Z,1011.23
2023-01-07T10:45:22.116Z,1011.16
2023-01-07T10:46:22.061Z,1011.17
2023-01-07T10:47:22.076Z,1011.15
2023-01-07T10:48:22.036Z,1011.14
2023-01-07T10:49:22.006Z,1011.10
2023-01-07T10:50:22.001Z,1011.06
2023-01-07T10:51:22.038Z,1011.05
2023-01-07T10:52:21.989Z,1010.99
2023-01-07T10:53:22.016Z,1010.97
2023-01-07T10:54:21.950Z,1010.95
2023-01-07T10:55:21.934Z,1010.91
2023-01-07T10:56:21.912Z,1010.89
2023-01-07T10:57:21.931Z,1010.85
2023-01-07T10:58:21.887Z,1010.84
2023-01-07T10:59:21.880Z,1010.78
2023-01-07T11:00:21.854Z,1010.77
2023-01-07T11:01:21.981Z,1010.72
2023-01-07T11:02:22.026Z,1010.69
2023-01-07T11:03:21.826Z,1010.70
2023-01-07T11:04:21.810Z,1010.63
2023-01-07T11:05:21.796Z,1010.61
2023-01-07T11:06:21.787Z,1010.59
2023-01-07T11:07:21.770Z,1010.61
2023-01-07T11:08:21.747Z,1010.54
2023-01-07T11:09:21.725Z,1010.53
2023-01-07T11:10:21.704Z,1010.58
2023-01-07T11:11:22.847Z,1010.52
2023-01-07T11:12:21.703Z,1010.41
2023-01-07T11:13:22.621Z,1010.43
2023-01-07T11:14:21.686Z,1010.51
2023-01-07T11:15:21.665Z,1010.44
2023-01-07T11:16:21.687Z,1010.44
2023-01-07T11:17:21.680Z,1010.39
2023-01-07T11:18:21.602Z,1010.35
2023-01-07T11:19:21.600Z,1010.35
2023-01-07T11:20:21.571Z,1010.35
2023-01-07T11:21:42.879Z,1010.36
2023-01-07T11:22:22.596Z,1010.30
2023-01-07T11:23:21.567Z,1010.33
2023-01-07T11:24:21.523Z,1010.32
2023-01-07T11:25:21.521Z,1010.15
2023-01-07T11:26:21.480Z,1010.17
2023-01-07T11:27:21.544Z,1010.14
2023-01-07T11:28:22.197Z,1010.16
2023-01-07T11:29:21.528Z,1010.12
2023-01-07T11:30:21.434Z,1010.07
2023-01-07T11:31:21.476Z,1010.13
2023-01-07T11:32:21.488Z,1010.05
2023-01-07T11:33:21.379Z,1010.04
2023-01-07T11:34:21.383Z,1009.97
2023-01-07T11:35:22.895Z,1010.04
2023-01-07T11:36:21.334Z,1009.93
2023-01-07T11:37:21.374Z,1009.96
2023-01-07T11:38:21.303Z,1009.96
2023-01-07T11:39:21.346Z,1009.90
2023-01-07T11:40:21.307Z,1009.98
2023-01-07T11:41:21.301Z,1009.86
2023-01-07T11:42:21.261Z,1009.83
2023-01-07T11:43:21.243Z,1009.81
2023-01-07T11:44:21.214Z,1009.74
2023-01-07T11:45:21.230Z,1009.74
2023-01-07T11:46:22.892Z,1009.71
2023-01-07T11:47:21.175Z,1009.72
2023-01-07T11:48:21.208Z,1009.73
2023-01-07T11:49:21.182Z,1009.68
2023-01-07T11:50:21.158Z,1009.66
2023-01-07T11:51:21.183Z,1009.61
2023-01-07T11:52:21.106Z,1009.55
2023-01-07T11:53:21.132Z,1009.50
2023-01-07T11:54:21.101Z,1009.52
2023-01-07T11:55:21.071Z,1009.53
2023-01-07T11:56:21.099Z,1009.59
2023-01-07T11:57:21.498Z,1009.47
2023-01-07T11:58:29.433Z,1009.43
2023-01-07T11:59:22.020Z,1009.40
2023-01-07T12:00:21.013Z,1009.37
2023-01-07T12:01:21.051Z,1009.37
2023-01-07T12:02:21.092Z,1009.41
2023-01-07T12:03:21.045Z,1009.38
2023-01-07T12:04:20.968Z,1009.36
2023-01-07T12:05:20.948Z,1009.40